Brian Lee Teste — WDH2656 — position and weather

sailwx.info

Track history (hours):
 
Tides and Currents Weather Stations Pressure Air Temp Water Temp Dewpoint Dewpoint Depression Visibility Wind Speed Wind Dir Waves Ship Positions

Brian Lee Teste

Owner: Genesis Marine, LLC, Houston, TX. More information available from US FCC via Universal Licensing System and Coast Guard Vessel Documentation Center.

Last reported at 2018-Jan-31 00:53 UTC. Time now 2018-Feb-21 19:19 UTC.
Position N 31°60' W 091°06'.
Warning: this ship's position is 21 days out of date.

Length 23 m; draft 3 m.

Type: Towing. MMSI: 367599850.

Date/timePositionNaut miles runAvg speedWind from/ knotsBaromVisibWave heightAir tempDewpointWater temp
2018-Jan-31 00:53N 31°60' W 091°06'8 9.1
2018-Jan-31 00:00N 32°08' W 091°06'5 9.9
2018-Jan-30 23:30N 32°08' W 091°01'611.2
2018-Jan-30 23:00N 32°13' W 090°59'510.4
2018-Jan-30 22:30N 32°18' W 090°56'6 6.3
2018-Jan-30 21:30N 32°23' W 090°60'4 8.7
2018-Jan-30 21:00N 32°26' W 091°03'5 9.8
2018-Jan-30 20:30N 32°30' W 091°07'5 9.9
2018-Jan-30 20:00N 32°35' W 091°08'  
2018-Jan-24 03:10N 32°41' W 091°06'1 6.5
2018-Jan-24 03:00N 32°40' W 091°07'3 5.6
2018-Jan-24 02:30N 32°38' W 091°09'3 5.2
2018-Jan-24 02:00N 32°36' W 091°08'3 6.1
2018-Jan-24 01:30N 32°33' W 091°06'2 4.1
2018-Jan-24 01:00N 32°31' W 091°06'3 5.9
2018-Jan-24 00:30N 32°28' W 091°07'3 6.6
2018-Jan-24 00:00N 32°26' W 091°04'3 6.6
2018-Jan-23 23:29N 32°25' W 090°60'3 5.6
2018-Jan-23 23:00N 32°22' W 091°00'3 5.7
2018-Jan-23 22:30N 32°21' W 090°57'3 6.0
2018-Jan-23 22:00N 32°20' W 090°54'3 5.1
2018-Jan-23 21:30N 32°18' W 090°56'3 5.7
2018-Jan-23 21:00N 32°16' W 090°58'3 6.0
2018-Jan-23 20:30N 32°13' W 090°59'3 6.5
2018-Jan-23 20:00N 32°10' W 091°00'3 5.7
2018-Jan-23 19:30N 32°07' W 091°01'3 6.0
2018-Jan-23 19:00N 32°08' W 091°05'2 3.9
2018-Jan-23 18:30N 32°06' W 091°06'1 1.1
2018-Jan-23 17:33N 32°05' W 091°05'0 2.7
2018-Jan-23 17:22N 32°05' W 091°04'2 5.4
2018-Jan-23 16:59N 32°03' W 091°03'  
Track history (hours):
 
Tides and Currents Weather Stations Pressure Air Temp Water Temp Dewpoint Dewpoint Depression Visibility Wind Speed Wind Dir Waves Ship Positions

Brian Lee Teste

Owner: Genesis Marine, LLC, Houston, TX. More information available from US FCC via Universal Licensing System and Coast Guard Vessel Documentation Center.

Last reported at 2018-Jan-31 00:53 UTC. Time now 2018-Feb-21 19:19 UTC.
Position N 31°60' W 091°06'.
Warning: this ship's position is 21 days out of date.

Length 23 m; draft 3 m.

Type: Towing. MMSI: 367599850.

Date/timePositionNaut miles runAvg speedWind from/ knotsBaromVisibWave heightAir tempDewpointWater temp
2018-Jan-31 00:53N 31°60' W 091°06'8 9.1
2018-Jan-31 00:00N 32°08' W 091°06'5 9.9
2018-Jan-30 23:30N 32°08' W 091°01'611.2
2018-Jan-30 23:00N 32°13' W 090°59'510.4
2018-Jan-30 22:30N 32°18' W 090°56'6 6.3
2018-Jan-30 21:30N 32°23' W 090°60'4 8.7
2018-Jan-30 21:00N 32°26' W 091°03'5 9.8
2018-Jan-30 20:30N 32°30' W 091°07'5 9.9
2018-Jan-30 20:00N 32°35' W 091°08'  
2018-Jan-24 03:10N 32°41' W 091°06'1 6.5
2018-Jan-24 03:00N 32°40' W 091°07'3 5.6
2018-Jan-24 02:30N 32°38' W 091°09'3 5.2
2018-Jan-24 02:00N 32°36' W 091°08'3 6.1
2018-Jan-24 01:30N 32°33' W 091°06'2 4.1
2018-Jan-24 01:00N 32°31' W 091°06'3 5.9
2018-Jan-24 00:30N 32°28' W 091°07'3 6.6
2018-Jan-24 00:00N 32°26' W 091°04'3 6.6
2018-Jan-23 23:29N 32°25' W 090°60'3 5.6
2018-Jan-23 23:00N 32°22' W 091°00'3 5.7
2018-Jan-23 22:30N 32°21' W 090°57'3 6.0
2018-Jan-23 22:00N 32°20' W 090°54'3 5.1
2018-Jan-23 21:30N 32°18' W 090°56'3 5.7
2018-Jan-23 21:00N 32°16' W 090°58'3 6.0
2018-Jan-23 20:30N 32°13' W 090°59'3 6.5
2018-Jan-23 20:00N 32°10' W 091°00'3 5.7
2018-Jan-23 19:30N 32°07' W 091°01'3 6.0
2018-Jan-23 19:00N 32°08' W 091°05'2 3.9
2018-Jan-23 18:30N 32°06' W 091°06'1 1.1
2018-Jan-23 17:33N 32°05' W 091°05'0 2.7
2018-Jan-23 17:22N 32°05' W 091°04'2 5.4
2018-Jan-23 16:59N 32°03' W 091°03'  

Dump ship's entire track history